sensor_id;sensor_type;location;lat;lon;timestamp;P1;durP1;ratioP1;P2;durP2;ratioP2
67092;SDS011;54011;50.772;7.730;2023-08-12T00:00:28;11.48;;;5.63;;
67092;SDS011;54011;50.772;7.730;2023-08-12T00:02:55;9.52;;;5.55;;
67092;SDS011;54011;50.772;7.730;2023-08-12T00:05:22;10.27;;;4.45;;
67092;SDS011;54011;50.772;7.730;2023-08-12T00:07:48;12.50;;;5.72;;
67092;SDS011;54011;50.772;7.730;2023-08-12T00:10:14;10.95;;;5.25;;
67092;SDS011;54011;50.772;7.730;2023-08-12T00:12:42;9.98;;;5.28;;
67092;SDS011;54011;50.772;7.730;2023-08-12T00:15:08;12.65;;;6.03;;
67092;SDS011;54011;50.772;7.730;2023-08-12T00:17:38;8.73;;;5.30;;
67092;SDS011;54011;50.772;7.730;2023-08-12T00:20:06;15.52;;;6.40;;
67092;SDS011;54011;50.772;7.730;2023-08-12T00:22:33;11.35;;;6.65;;
67092;SDS011;54011;50.772;7.730;2023-08-12T00:24:59;13.43;;;6.60;;
67092;SDS011;54011;50.772;7.730;2023-08-12T00:27:26;15.93;;;7.10;;
67092;SDS011;54011;50.772;7.730;2023-08-12T00:29:52;17.40;;;7.15;;
67092;SDS011;54011;50.772;7.730;2023-08-12T00:32:18;14.85;;;7.13;;
67092;SDS011;54011;50.772;7.730;2023-08-12T00:34:44;13.18;;;7.15;;
67092;SDS011;54011;50.772;7.730;2023-08-12T00:37:12;17.70;;;8.32;;
67092;SDS011;54011;50.772;7.730;2023-08-12T00:39:37;15.65;;;7.75;;
67092;SDS011;54011;50.772;7.730;2023-08-12T00:42:05;15.48;;;6.78;;
67092;SDS011;54011;50.772;7.730;2023-08-12T00:44:33;16.30;;;6.70;;
67092;SDS011;54011;50.772;7.730;2023-08-12T00:47:00;16.30;;;7.25;;
67092;SDS011;54011;50.772;7.730;2023-08-12T00:49:26;17.98;;;8.13;;
67092;SDS011;54011;50.772;7.730;2023-08-12T00:51:52;17.15;;;8.73;;
67092;SDS011;54011;50.772;7.730;2023-08-12T00:54:21;22.00;;;8.85;;
67092;SDS011;54011;50.772;7.730;2023-08-12T00:56:49;23.75;;;9.15;;
67092;SDS011;54011;50.772;7.730;2023-08-12T00:59:17;20.55;;;10.30;;
67092;SDS011;54011;50.772;7.730;2023-08-12T01:01:46;20.55;;;10.65;;
67092;SDS011;54011;50.772;7.730;2023-08-12T01:04:13;23.45;;;11.63;;
67092;SDS011;54011;50.772;7.730;2023-08-12T01:06:39;23.33;;;12.52;;
67092;SDS011;54011;50.772;7.730;2023-08-12T01:09:08;21.02;;;12.18;;
67092;SDS011;54011;50.772;7.730;2023-08-12T01:11:36;18.58;;;11.52;;
67092;SDS011;54011;50.772;7.730;2023-08-12T01:14:27;21.95;;;13.30;;
67092;SDS011;54011;50.772;7.730;2023-08-12T01:17:02;24.63;;;13.80;;
67092;SDS011;54011;50.772;7.730;2023-08-12T01:19:37;20.05;;;13.00;;
67092;SDS011;54011;50.772;7.730;2023-08-12T01:22:04;21.50;;;14.25;;
67092;SDS011;54011;50.772;7.730;2023-08-12T01:24:39;19.88;;;13.20;;
67092;SDS011;54011;50.772;7.730;2023-08-12T01:27:06;23.48;;;13.75;;
67092;SDS011;54011;50.772;7.730;2023-08-12T01:29:35;27.33;;;16.02;;
67092;SDS011;54011;50.772;7.730;2023-08-12T01:32:23;25.20;;;15.77;;
67092;SDS011;54011;50.772;7.730;2023-08-12T01:35:10;29.00;;;18.45;;
67092;SDS011;54011;50.772;7.730;2023-08-12T01:37:49;33.75;;;20.00;;
67092;SDS011;54011;50.772;7.730;2023-08-12T01:40:18;29.52;;;18.27;;
67092;SDS011;54011;50.772;7.730;2023-08-12T01:42:45;35.13;;;19.73;;
67092;SDS011;54011;50.772;7.730;2023-08-12T01:45:13;31.30;;;19.35;;
67092;SDS011;54011;50.772;7.730;2023-08-12T01:47:39;28.77;;;17.38;;
67092;SDS011;54011;50.772;7.730;2023-08-12T01:50:08;27.33;;;16.70;;
67092;SDS011;54011;50.772;7.730;2023-08-12T01:52:35;27.08;;;16.10;;
67092;SDS011;54011;50.772;7.730;2023-08-12T01:55:00;24.52;;;14.00;;
67092;SDS011;54011;50.772;7.730;2023-08-12T01:57:26;23.65;;;13.75;;
67092;SDS011;54011;50.772;7.730;2023-08-12T01:59:52;22.35;;;11.80;;
67092;SDS011;54011;50.772;7.730;2023-08-12T02:02:17;20.33;;;10.25;;
67092;SDS011;54011;50.772;7.730;2023-08-12T02:04:43;18.05;;;11.32;;
67092;SDS011;54011;50.772;7.730;2023-08-12T02:07:10;18.67;;;11.63;;
67092;SDS011;54011;50.772;7.730;2023-08-12T02:09:36;19.85;;;11.95;;
67092;SDS011;54011;50.772;7.730;2023-08-12T02:12:02;16.73;;;11.48;;
67092;SDS011;54011;50.772;7.730;2023-08-12T02:14:29;22.08;;;12.23;;
67092;SDS011;54011;50.772;7.730;2023-08-12T02:16:56;20.23;;;11.57;;
67092;SDS011;54011;50.772;7.730;2023-08-12T02:19:22;18.92;;;11.25;;
67092;SDS011;54011;50.772;7.730;2023-08-12T02:21:52;17.48;;;11.23;;
67092;SDS011;54011;50.772;7.730;2023-08-12T02:24:18;17.75;;;10.65;;
67092;SDS011;54011;50.772;7.730;2023-08-12T02:26:48;17.08;;;9.90;;
67092;SDS011;54011;50.772;7.730;2023-08-12T02:29:14;17.17;;;10.15;;
67092;SDS011;54011;50.772;7.730;2023-08-12T02:31:41;14.63;;;10.10;;
67092;SDS011;54011;50.772;7.730;2023-08-12T02:34:08;17.70;;;10.05;;
67092;SDS011;54011;50.772;7.730;2023-08-12T02:36:35;18.15;;;9.90;;
67092;SDS011;54011;50.772;7.730;2023-08-12T02:39:01;14.57;;;8.43;;
67092;SDS011;54011;50.772;7.730;2023-08-12T02:41:29;13.00;;;8.02;;
67092;SDS011;54011;50.772;7.730;2023-08-12T02:43:55;10.95;;;7.15;;
67092;SDS011;54011;50.772;7.730;2023-08-12T02:46:22;14.13;;;7.88;;
67092;SDS011;54011;50.772;7.730;2023-08-12T02:48:47;14.45;;;9.38;;
67092;SDS011;54011;50.772;7.730;2023-08-12T02:51:14;15.27;;;9.95;;
67092;SDS011;54011;50.772;7.730;2023-08-12T02:53:40;13.57;;;8.35;;
67092;SDS011;54011;50.772;7.730;2023-08-12T02:56:05;12.52;;;8.02;;
67092;SDS011;54011;50.772;7.730;2023-08-12T02:58:32;15.07;;;9.25;;
67092;SDS011;54011;50.772;7.730;2023-08-12T03:00:59;15.43;;;9.95;;
67092;SDS011;54011;50.772;7.730;2023-08-12T03:03:25;15.43;;;9.38;;
67092;SDS011;54011;50.772;7.730;2023-08-12T03:05:52;12.90;;;8.73;;
67092;SDS011;54011;50.772;7.730;2023-08-12T03:08:20;20.73;;;10.88;;
67092;SDS011;54011;50.772;7.730;2023-08-12T03:10:47;13.57;;;10.75;;
67092;SDS011;54011;50.772;7.730;2023-08-12T03:13:14;17.35;;;10.90;;
67092;SDS011;54011;50.772;7.730;2023-08-12T03:15:42;15.75;;;10.60;;
67092;SDS011;54011;50.772;7.730;2023-08-12T03:18:09;15.95;;;9.95;;
67092;SDS011;54011;50.772;7.730;2023-08-12T03:20:36;17.38;;;10.63;;
67092;SDS011;54011;50.772;7.730;2023-08-12T03:23:02;17.52;;;11.50;;
67092;SDS011;54011;50.772;7.730;2023-08-12T03:25:28;17.67;;;11.73;;
67092;SDS011;54011;50.772;7.730;2023-08-12T03:27:54;22.95;;;12.77;;
67092;SDS011;54011;50.772;7.730;2023-08-12T03:30:20;18.27;;;12.35;;
67092;SDS011;54011;50.772;7.730;2023-08-12T03:32:47;21.20;;;13.30;;
67092;SDS011;54011;50.772;7.730;2023-08-12T03:35:14;18.50;;;12.35;;
67092;SDS011;54011;50.772;7.730;2023-08-12T03:37:41;16.85;;;10.70;;
67092;SDS011;54011;50.772;7.730;2023-08-12T03:40:08;15.52;;;10.43;;
67092;SDS011;54011;50.772;7.730;2023-08-12T03:42:36;14.35;;;9.73;;
67092;SDS011;54011;50.772;7.730;2023-08-12T03:45:02;13.32;;;9.55;;
67092;SDS011;54011;50.772;7.730;2023-08-12T03:47:31;14.88;;;9.98;;
67092;SDS011;54011;50.772;7.730;2023-08-12T03:49:58;15.65;;;10.10;;
67092;SDS011;54011;50.772;7.730;2023-08-12T03:52:24;12.70;;;8.10;;
67092;SDS011;54011;50.772;7.730;2023-08-12T03:54:49;10.80;;;7.88;;
67092;SDS011;54011;50.772;7.730;2023-08-12T03:57:20;12.85;;;7.90;;
67092;SDS011;54011;50.772;7.730;2023-08-12T03:59:47;16.30;;;9.35;;
67092;SDS011;54011;50.772;7.730;2023-08-12T04:02:14;16.00;;;9.20;;
67092;SDS011;54011;50.772;7.730;2023-08-12T04:04:44;14.32;;;9.10;;
67092;SDS011;54011;50.772;7.730;2023-08-12T04:07:10;12.98;;;8.70;;
67092;SDS011;54011;50.772;7.730;2023-08-12T04:09:36;15.90;;;8.95;;
67092;SDS011;54011;50.772;7.730;2023-08-12T04:12:02;12.23;;;8.80;;
67092;SDS011;54011;50.772;7.730;2023-08-12T04:14:28;12.23;;;8.45;;
67092;SDS011;54011;50.772;7.730;2023-08-12T04:16:55;11.07;;;7.95;;
67092;SDS011;54011;50.772;7.730;2023-08-12T04:19:21;10.27;;;7.45;;
67092;SDS011;54011;50.772;7.730;2023-08-12T04:21:48;11.15;;;7.60;;
67092;SDS011;54011;50.772;7.730;2023-08-12T04:24:13;11.55;;;7.60;;
67092;SDS011;54011;50.772;7.730;2023-08-12T04:26:39;12.45;;;7.65;;
67092;SDS011;54011;50.772;7.730;2023-08-12T04:29:05;10.57;;;7.40;;
67092;SDS011;54011;50.772;7.730;2023-08-12T04:31:35;12.98;;;7.43;;
67092;SDS011;54011;50.772;7.730;2023-08-12T04:34:02;11.32;;;7.50;;
67092;SDS011;54011;50.772;7.730;2023-08-12T04:36:29;11.38;;;6.65;;
67092;SDS011;54011;50.772;7.730;2023-08-12T04:38:56;10.98;;;7.65;;
67092;SDS011;54011;50.772;7.730;2023-08-12T04:41:24;12.55;;;8.20;;
67092;SDS011;54011;50.772;7.730;2023-08-12T04:43:51;10.50;;;8.07;;
67092;SDS011;54011;50.772;7.730;2023-08-12T04:46:19;12.15;;;7.85;;
67092;SDS011;54011;50.772;7.730;2023-08-12T04:48:46;13.13;;;8.10;;
67092;SDS011;54011;50.772;7.730;2023-08-12T04:51:13;11.30;;;7.72;;
67092;SDS011;54011;50.772;7.730;2023-08-12T04:53:40;11.20;;;7.85;;
67092;SDS011;54011;50.772;7.730;2023-08-12T04:56:06;10.27;;;7.28;;
67092;SDS011;54011;50.772;7.730;2023-08-12T04:58:33;14.73;;;9.10;;
67092;SDS011;54011;50.772;7.730;2023-08-12T05:01:00;16.70;;;10.65;;
67092;SDS011;54011;50.772;7.730;2023-08-12T05:03:26;15.40;;;11.00;;
67092;SDS011;54011;50.772;7.730;2023-08-12T05:05:53;17.08;;;11.32;;
67092;SDS011;54011;50.772;7.730;2023-08-12T05:08:23;18.48;;;11.35;;
67092;SDS011;54011;50.772;7.730;2023-08-12T05:10:49;14.60;;;10.93;;
67092;SDS011;54011;50.772;7.730;2023-08-12T05:13:15;17.70;;;11.88;;
67092;SDS011;54011;50.772;7.730;2023-08-12T05:15:45;15.77;;;11.60;;
67092;SDS011;54011;50.772;7.730;2023-08-12T05:18:13;15.98;;;10.85;;
67092;SDS011;54011;50.772;7.730;2023-08-12T05:20:45;14.75;;;10.55;;
67092;SDS011;54011;50.772;7.730;2023-08-12T05:23:12;17.80;;;9.40;;
67092;SDS011;54011;50.772;7.730;2023-08-12T05:25:38;20.60;;;9.90;;
67092;SDS011;54011;50.772;7.730;2023-08-12T05:28:04;16.10;;;10.55;;
67092;SDS011;54011;50.772;7.730;2023-08-12T05:30:30;15.05;;;10.18;;
67092;SDS011;54011;50.772;7.730;2023-08-12T05:32:56;14.55;;;9.82;;
67092;SDS011;54011;50.772;7.730;2023-08-12T05:35:21;13.95;;;9.93;;
67092;SDS011;54011;50.772;7.730;2023-08-12T05:37:48;12.93;;;8.77;;
67092;SDS011;54011;50.772;7.730;2023-08-12T05:40:14;12.02;;;8.52;;
67092;SDS011;54011;50.772;7.730;2023-08-12T05:42:40;16.25;;;9.35;;
67092;SDS011;54011;50.772;7.730;2023-08-12T05:45:06;12.90;;;8.75;;
67092;SDS011;54011;50.772;7.730;2023-08-12T05:47:32;18.70;;;9.77;;
67092;SDS011;54011;50.772;7.730;2023-08-12T05:49:58;12.90;;;9.10;;
67092;SDS011;54011;50.772;7.730;2023-08-12T05:52:25;12.75;;;8.05;;
67092;SDS011;54011;50.772;7.730;2023-08-12T05:54:52;12.43;;;9.18;;
67092;SDS011;54011;50.772;7.730;2023-08-12T05:57:18;15.10;;;9.13;;
67092;SDS011;54011;50.772;7.730;2023-08-12T05:59:45;16.05;;;8.82;;
67092;SDS011;54011;50.772;7.730;2023-08-12T06:02:12;14.15;;;8.98;;
67092;SDS011;54011;50.772;7.730;2023-08-12T06:04:38;11.90;;;8.25;;
67092;SDS011;54011;50.772;7.730;2023-08-12T06:07:04;12.23;;;8.25;;
67092;SDS011;54011;50.772;7.730;2023-08-12T06:09:30;12.57;;;8.15;;
67092;SDS011;54011;50.772;7.730;2023-08-12T06:11:56;13.20;;;9.15;;
67092;SDS011;54011;50.772;7.730;2023-08-12T06:14:22;15.93;;;8.80;;
67092;SDS011;54011;50.772;7.730;2023-08-12T06:16:48;10.85;;;8.48;;
67092;SDS011;54011;50.772;7.730;2023-08-12T06:19:14;11.48;;;8.75;;
67092;SDS011;54011;50.772;7.730;2023-08-12T06:21:40;11.77;;;8.82;;
67092;SDS011;54011;50.772;7.730;2023-08-12T06:24:07;12.43;;;9.02;;
67092;SDS011;54011;50.772;7.730;2023-08-12T06:26:34;12.88;;;8.90;;
67092;SDS011;54011;50.772;7.730;2023-08-12T06:29:00;12.02;;;8.50;;
67092;SDS011;54011;50.772;7.730;2023-08-12T06:31:26;11.90;;;8.73;;
67092;SDS011;54011;50.772;7.730;2023-08-12T06:33:53;11.43;;;8.38;;
67092;SDS011;54011;50.772;7.730;2023-08-12T06:36:18;12.07;;;8.63;;
67092;SDS011;54011;50.772;7.730;2023-08-12T06:38:44;10.07;;;7.88;;
67092;SDS011;54011;50.772;7.730;2023-08-12T06:41:10;11.95;;;7.88;;
67092;SDS011;54011;50.772;7.730;2023-08-12T06:43:36;10.30;;;7.63;;
67092;SDS011;54011;50.772;7.730;2023-08-12T06:46:01;11.70;;;7.97;;
67092;SDS011;54011;50.772;7.730;2023-08-12T06:48:28;12.30;;;8.65;;
67092;SDS011;54011;50.772;7.730;2023-08-12T06:50:54;13.25;;;7.47;;
67092;SDS011;54011;50.772;7.730;2023-08-12T06:53:22;9.45;;;7.20;;
67092;SDS011;54011;50.772;7.730;2023-08-12T06:55:48;10.98;;;7.40;;
67092;SDS011;54011;50.772;7.730;2023-08-12T06:58:14;14.77;;;6.93;;
67092;SDS011;54011;50.772;7.730;2023-08-12T07:00:40;9.05;;;5.28;;
67092;SDS011;54011;50.772;7.730;2023-08-12T07:03:06;10.38;;;4.97;;
67092;SDS011;54011;50.772;7.730;2023-08-12T07:05:32;10.30;;;5.45;;
67092;SDS011;54011;50.772;7.730;2023-08-12T07:07:57;10.55;;;5.70;;
67092;SDS011;54011;50.772;7.730;2023-08-12T07:10:23;7.82;;;4.88;;
67092;SDS011;54011;50.772;7.730;2023-08-12T07:12:50;7.40;;;4.78;;
67092;SDS011;54011;50.772;7.730;2023-08-12T07:15:15;8.40;;;4.85;;
67092;SDS011;54011;50.772;7.730;2023-08-12T07:17:41;6.30;;;3.92;;
67092;SDS011;54011;50.772;7.730;2023-08-12T07:20:08;7.13;;;4.63;;
67092;SDS011;54011;50.772;7.730;2023-08-12T07:22:34;6.85;;;4.45;;
67092;SDS011;54011;50.772;7.730;2023-08-12T07:25:00;6.60;;;4.20;;
67092;SDS011;54011;50.772;7.730;2023-08-12T07:27:26;8.13;;;4.40;;
67092;SDS011;54011;50.772;7.730;2023-08-12T07:29:52;6.57;;;4.10;;
67092;SDS011;54011;50.772;7.730;2023-08-12T07:32:18;5.47;;;3.50;;
67092;SDS011;54011;50.772;7.730;2023-08-12T07:34:44;5.30;;;3.53;;
67092;SDS011;54011;50.772;7.730;2023-08-12T07:37:10;4.90;;;3.08;;
67092;SDS011;54011;50.772;7.730;2023-08-12T07:39:36;6.00;;;2.85;;
67092;SDS011;54011;50.772;7.730;2023-08-12T07:42:05;5.70;;;3.33;;
67092;SDS011;54011;50.772;7.730;2023-08-12T07:44:31;7.05;;;3.75;;
67092;SDS011;54011;50.772;7.730;2023-08-12T07:46:58;7.75;;;4.00;;
67092;SDS011;54011;50.772;7.730;2023-08-12T07:49:23;5.63;;;3.80;;
67092;SDS011;54011;50.772;7.730;2023-08-12T07:51:49;6.68;;;3.78;;
67092;SDS011;54011;50.772;7.730;2023-08-12T07:54:15;5.38;;;2.90;;
67092;SDS011;54011;50.772;7.730;2023-08-12T07:56:40;6.03;;;3.35;;
67092;SDS011;54011;50.772;7.730;2023-08-12T07:59:06;6.05;;;2.03;;
67092;SDS011;54011;50.772;7.730;2023-08-12T08:01:33;4.78;;;2.47;;
67092;SDS011;54011;50.772;7.730;2023-08-12T08:03:58;5.53;;;3.05;;
67092;SDS011;54011;50.772;7.730;2023-08-12T08:06:24;5.53;;;2.72;;
67092;SDS011;54011;50.772;7.730;2023-08-12T08:08:50;4.10;;;2.70;;
67092;SDS011;54011;50.772;7.730;2023-08-12T08:11:15;4.95;;;2.30;;
67092;SDS011;54011;50.772;7.730;2023-08-12T08:13:41;5.18;;;2.58;;
67092;SDS011;54011;50.772;7.730;2023-08-12T08:16:08;3.90;;;2.60;;
67092;SDS011;54011;50.772;7.730;2023-08-12T08:18:35;5.13;;;2.65;;
67092;SDS011;54011;50.772;7.730;2023-08-12T08:21:00;4.95;;;2.67;;
67092;SDS011;54011;50.772;7.730;2023-08-12T08:23:26;5.32;;;2.45;;
67092;SDS011;54011;50.772;7.730;2023-08-12T08:25:51;5.25;;;2.72;;
67092;SDS011;54011;50.772;7.730;2023-08-12T08:28:18;3.22;;;1.65;;
67092;SDS011;54011;50.772;7.730;2023-08-12T08:30:45;4.13;;;2.13;;
67092;SDS011;54011;50.772;7.730;2023-08-12T08:33:10;6.22;;;2.63;;
67092;SDS011;54011;50.772;7.730;2023-08-12T08:35:36;5.32;;;2.20;;
67092;SDS011;54011;50.772;7.730;2023-08-12T08:38:02;4.55;;;2.00;;
67092;SDS011;54011;50.772;7.730;2023-08-12T08:40:28;4.55;;;2.25;;
67092;SDS011;54011;50.772;7.730;2023-08-12T08:42:53;5.30;;;2.05;;
67092;SDS011;54011;50.772;7.730;2023-08-12T08:45:19;4.32;;;2.30;;
67092;SDS011;54011;50.772;7.730;2023-08-12T08:47:47;4.28;;;1.88;;
67092;SDS011;54011;50.772;7.730;2023-08-12T08:50:15;4.57;;;1.83;;
67092;SDS011;54011;50.772;7.730;2023-08-12T08:52:41;4.60;;;1.90;;
67092;SDS011;54011;50.772;7.730;2023-08-12T08:55:08;3.88;;;1.88;;
67092;SDS011;54011;50.772;7.730;2023-08-12T08:57:35;5.53;;;1.70;;
67092;SDS011;54011;50.772;7.730;2023-08-12T09:00:04;3.00;;;1.63;;
67092;SDS011;54011;50.772;7.730;2023-08-12T09:02:34;3.42;;;1.55;;
67092;SDS011;54011;50.772;7.730;2023-08-12T09:05:03;4.75;;;1.15;;
67092;SDS011;54011;50.772;7.730;2023-08-12T09:07:30;4.57;;;1.85;;
67092;SDS011;54011;50.772;7.730;2023-08-12T09:09:56;3.40;;;1.50;;
67092;SDS011;54011;50.772;7.730;2023-08-12T09:12:25;4.72;;;1.70;;
67092;SDS011;54011;50.772;7.730;2023-08-12T09:14:53;3.97;;;1.80;;
67092;SDS011;54011;50.772;7.730;2023-08-12T09:17:18;5.57;;;2.13;;
67092;SDS011;54011;50.772;7.730;2023-08-12T09:19:44;4.00;;;1.70;;
67092;SDS011;54011;50.772;7.730;2023-08-12T09:22:10;7.20;;;1.73;;
67092;SDS011;54011;50.772;7.730;2023-08-12T09:24:37;3.72;;;1.70;;
67092;SDS011;54011;50.772;7.730;2023-08-12T09:27:04;5.55;;;1.83;;
67092;SDS011;54011;50.772;7.730;2023-08-12T09:29:31;5.53;;;1.70;;
67092;SDS011;54011;50.772;7.730;2023-08-12T09:32:10;3.75;;;1.70;;
67092;SDS011;54011;50.772;7.730;2023-08-12T09:34:59;3.25;;;1.50;;
67092;SDS011;54011;50.772;7.730;2023-08-12T09:37:27;7.30;;;1.88;;
67092;SDS011;54011;50.772;7.730;2023-08-12T09:39:53;3.20;;;1.58;;
67092;SDS011;54011;50.772;7.730;2023-08-12T09:42:18;3.05;;;1.40;;
67092;SDS011;54011;50.772;7.730;2023-08-12T09:44:44;6.65;;;1.75;;
67092;SDS011;54011;50.772;7.730;2023-08-12T09:47:11;5.20;;;1.90;;
67092;SDS011;54011;50.772;7.730;2023-08-12T09:49:38;3.45;;;1.60;;
67092;SDS011;54011;50.772;7.730;2023-08-12T09:52:05;6.22;;;2.10;;
67092;SDS011;54011;50.772;7.730;2023-08-12T09:54:32;3.92;;;1.77;;
67092;SDS011;54011;50.772;7.730;2023-08-12T09:57:01;5.05;;;1.63;;
67092;SDS011;54011;50.772;7.730;2023-08-12T09:59:32;3.42;;;1.58;;
67092;SDS011;54011;50.772;7.730;2023-08-12T10:01:59;3.92;;;2.00;;
67092;SDS011;54011;50.772;7.730;2023-08-12T10:04:31;5.35;;;1.42;;
67092;SDS011;54011;50.772;7.730;2023-08-12T10:07:02;4.53;;;1.80;;
67092;SDS011;54011;50.772;7.730;2023-08-12T10:09:29;4.35;;;2.08;;
67092;SDS011;54011;50.772;7.730;2023-08-12T10:11:56;6.20;;;2.08;;
67092;SDS011;54011;50.772;7.730;2023-08-12T10:14:22;7.63;;;2.53;;
67092;SDS011;54011;50.772;7.730;2023-08-12T10:16:49;5.90;;;2.17;;
67092;SDS011;54011;50.772;7.730;2023-08-12T10:19:15;5.35;;;2.10;;
67092;SDS011;54011;50.772;7.730;2023-08-12T10:21:42;3.95;;;1.98;;
67092;SDS011;54011;50.772;7.730;2023-08-12T10:24:10;6.05;;;2.05;;
67092;SDS011;54011;50.772;7.730;2023-08-12T10:26:37;3.92;;;1.83;;
67092;SDS011;54011;50.772;7.730;2023-08-12T10:29:05;5.97;;;2.13;;
67092;SDS011;54011;50.772;7.730;2023-08-12T10:31:30;6.35;;;2.00;;
67092;SDS011;54011;50.772;7.730;2023-08-12T10:33:57;5.00;;;2.00;;
67092;SDS011;54011;50.772;7.730;2023-08-12T10:36:22;4.30;;;2.17;;
67092;SDS011;54011;50.772;7.730;2023-08-12T10:38:48;5.82;;;2.28;;
67092;SDS011;54011;50.772;7.730;2023-08-12T10:41:23;6.55;;;2.13;;
67092;SDS011;54011;50.772;7.730;2023-08-12T10:46:33;7.55;;;2.30;;
67092;SDS011;54011;50.772;7.730;2023-08-12T10:49:04;6.10;;;2.10;;
67092;SDS011;54011;50.772;7.730;2023-08-12T11:02:28;4.38;;;2.10;;
67092;SDS011;54011;50.772;7.730;2023-08-12T11:07:28;4.55;;;1.80;;
67092;SDS011;54011;50.772;7.730;2023-08-12T11:10:31;5.05;;;1.85;;
67092;SDS011;54011;50.772;7.730;2023-08-12T11:18:21;5.97;;;1.92;;
67092;SDS011;54011;50.772;7.730;2023-08-12T11:20:47;3.85;;;1.80;;
67092;SDS011;54011;50.772;7.730;2023-08-12T11:23:14;5.13;;;2.20;;
67092;SDS011;54011;50.772;7.730;2023-08-12T11:25:42;4.22;;;1.80;;
67092;SDS011;54011;50.772;7.730;2023-08-12T11:28:09;4.35;;;2.10;;
67092;SDS011;54011;50.772;7.730;2023-08-12T11:30:34;3.80;;;1.80;;
67092;SDS011;54011;50.772;7.730;2023-08-12T11:33:00;3.92;;;2.03;;
67092;SDS011;54011;50.772;7.730;2023-08-12T11:35:27;6.03;;;2.38;;
67092;SDS011;54011;50.772;7.730;2023-08-12T11:37:56;6.35;;;2.50;;
67092;SDS011;54011;50.772;7.730;2023-08-12T11:40:23;5.22;;;2.45;;
67092;SDS011;54011;50.772;7.730;2023-08-12T11:42:50;6.07;;;2.40;;
67092;SDS011;54011;50.772;7.730;2023-08-12T11:45:26;4.70;;;2.17;;
67092;SDS011;54011;50.772;7.730;2023-08-12T11:47:53;5.82;;;3.00;;
67092;SDS011;54011;50.772;7.730;2023-08-12T11:50:20;5.75;;;2.63;;
67092;SDS011;54011;50.772;7.730;2023-08-12T11:52:47;7.18;;;2.92;;
67092;SDS011;54011;50.772;7.730;2023-08-12T11:55:13;5.65;;;2.80;;
67092;SDS011;54011;50.772;7.730;2023-08-12T11:57:40;4.65;;;2.20;;
67092;SDS011;54011;50.772;7.730;2023-08-12T12:00:07;6.05;;;2.38;;
67092;SDS011;54011;50.772;7.730;2023-08-12T12:02:44;6.15;;;2.67;;
67092;SDS011;54011;50.772;7.730;2023-08-12T12:05:15;7.85;;;2.58;;
67092;SDS011;54011;50.772;7.730;2023-08-12T12:07:41;5.75;;;2.50;;
67092;SDS011;54011;50.772;7.730;2023-08-12T12:10:12;5.35;;;2.50;;
67092;SDS011;54011;50.772;7.730;2023-08-12T12:12:51;5.88;;;2.20;;
67092;SDS011;54011;50.772;7.730;2023-08-12T12:15:16;4.57;;;2.03;;
67092;SDS011;54011;50.772;7.730;2023-08-12T12:17:42;4.45;;;2.13;;
67092;SDS011;54011;50.772;7.730;2023-08-12T12:20:10;4.55;;;2.00;;
67092;SDS011;54011;50.772;7.730;2023-08-12T12:22:36;3.53;;;1.60;;
67092;SDS011;54011;50.772;7.730;2023-08-12T12:25:06;4.00;;;1.95;;
67092;SDS011;54011;50.772;7.730;2023-08-12T12:27:33;5.25;;;1.80;;
67092;SDS011;54011;50.772;7.730;2023-08-12T12:29:59;3.75;;;1.70;;
67092;SDS011;54011;50.772;7.730;2023-08-12T12:32:26;4.07;;;1.65;;
67092;SDS011;54011;50.772;7.730;2023-08-12T12:34:52;6.32;;;1.90;;
67092;SDS011;54011;50.772;7.730;2023-08-12T12:37:18;5.63;;;1.60;;
67092;SDS011;54011;50.772;7.730;2023-08-12T12:39:44;6.20;;;1.90;;
67092;SDS011;54011;50.772;7.730;2023-08-12T12:42:10;6.28;;;1.88;;
67092;SDS011;54011;50.772;7.730;2023-08-12T12:44:36;6.47;;;1.90;;
67092;SDS011;54011;50.772;7.730;2023-08-12T12:47:02;4.30;;;1.70;;
67092;SDS011;54011;50.772;7.730;2023-08-12T12:49:28;3.35;;;1.83;;
67092;SDS011;54011;50.772;7.730;2023-08-12T12:51:54;4.78;;;1.80;;
67092;SDS011;54011;50.772;7.730;2023-08-12T12:54:20;4.57;;;1.80;;
67092;SDS011;54011;50.772;7.730;2023-08-12T12:56:45;7.97;;;1.90;;
67092;SDS011;54011;50.772;7.730;2023-08-12T12:59:11;4.53;;;1.83;;
67092;SDS011;54011;50.772;7.730;2023-08-12T13:01:36;3.90;;;1.60;;
67092;SDS011;54011;50.772;7.730;2023-08-12T13:04:02;3.78;;;1.70;;
67092;SDS011;54011;50.772;7.730;2023-08-12T13:06:28;6.43;;;2.15;;
67092;SDS011;54011;50.772;7.730;2023-08-12T13:08:54;3.95;;;1.77;;
67092;SDS011;54011;50.772;7.730;2023-08-12T13:11:19;4.32;;;1.90;;
67092;SDS011;54011;50.772;7.730;2023-08-12T13:13:45;4.85;;;2.00;;
67092;SDS011;54011;50.772;7.730;2023-08-12T13:16:11;3.15;;;1.27;;
67092;SDS011;54011;50.772;7.730;2023-08-12T13:18:39;3.40;;;1.33;;
67092;SDS011;54011;50.772;7.730;2023-08-12T13:21:04;5.32;;;1.50;;
67092;SDS011;54011;50.772;7.730;2023-08-12T13:23:30;3.55;;;1.58;;
67092;SDS011;54011;50.772;7.730;2023-08-12T13:25:55;4.68;;;1.52;;
67092;SDS011;54011;50.772;7.730;2023-08-12T13:28:21;3.65;;;1.60;;
67092;SDS011;54011;50.772;7.730;2023-08-12T13:30:48;5.30;;;1.60;;
67092;SDS011;54011;50.772;7.730;2023-08-12T13:33:13;3.28;;;1.48;;
67092;SDS011;54011;50.772;7.730;2023-08-12T13:35:39;3.22;;;1.38;;
67092;SDS011;54011;50.772;7.730;2023-08-12T13:38:04;4.40;;;1.77;;
67092;SDS011;54011;50.772;7.730;2023-08-12T13:40:30;4.28;;;1.65;;
67092;SDS011;54011;50.772;7.730;2023-08-12T13:42:55;3.90;;;1.60;;
67092;SDS011;54011;50.772;7.730;2023-08-12T13:45:22;4.55;;;1.80;;
67092;SDS011;54011;50.772;7.730;2023-08-12T13:47:49;4.60;;;1.60;;
67092;SDS011;54011;50.772;7.730;2023-08-12T13:50:15;4.60;;;1.60;;
67092;SDS011;54011;50.772;7.730;2023-08-12T13:52:42;3.58;;;1.40;;
67092;SDS011;54011;50.772;7.730;2023-08-12T13:55:08;3.40;;;1.60;;
67092;SDS011;54011;50.772;7.730;2023-08-12T13:57:34;3.17;;;1.35;;
67092;SDS011;54011;50.772;7.730;2023-08-12T14:00:00;4.50;;;1.67;;
67092;SDS011;54011;50.772;7.730;2023-08-12T14:02:27;4.32;;;1.60;;
67092;SDS011;54011;50.772;7.730;2023-08-12T14:04:53;3.45;;;1.60;;
67092;SDS011;54011;50.772;7.730;2023-08-12T14:07:19;3.42;;;1.55;;
67092;SDS011;54011;50.772;7.730;2023-08-12T14:09:47;3.35;;;1.40;;
67092;SDS011;54011;50.772;7.730;2023-08-12T14:12:13;4.18;;;1.52;;
67092;SDS011;54011;50.772;7.730;2023-08-12T14:14:39;4.38;;;1.67;;
67092;SDS011;54011;50.772;7.730;2023-08-12T14:17:05;4.25;;;1.63;;
67092;SDS011;54011;50.772;7.730;2023-08-12T14:19:30;3.45;;;1.40;;
67092;SDS011;54011;50.772;7.730;2023-08-12T14:21:56;2.90;;;1.33;;
67092;SDS011;54011;50.772;7.730;2023-08-12T14:24:22;4.18;;;1.58;;
67092;SDS011;54011;50.772;7.730;2023-08-12T14:26:50;3.60;;;1.60;;
67092;SDS011;54011;50.772;7.730;2023-08-12T14:29:16;3.50;;;1.70;;
67092;SDS011;54011;50.772;7.730;2023-08-12T14:31:42;4.97;;;1.73;;
67092;SDS011;54011;50.772;7.730;2023-08-12T14:34:07;3.90;;;1.55;;
67092;SDS011;54011;50.772;7.730;2023-08-12T14:36:33;4.38;;;1.50;;
67092;SDS011;54011;50.772;7.730;2023-08-12T14:39:00;4.45;;;1.50;;
67092;SDS011;54011;50.772;7.730;2023-08-12T14:41:25;7.50;;;1.50;;
67092;SDS011;54011;50.772;7.730;2023-08-12T14:43:51;3.08;;;1.30;;
67092;SDS011;54011;50.772;7.730;2023-08-12T14:46:16;3.92;;;1.60;;
67092;SDS011;54011;50.772;7.730;2023-08-12T14:48:42;4.95;;;1.58;;
67092;SDS011;54011;50.772;7.730;2023-08-12T14:51:08;4.22;;;1.13;;
67092;SDS011;54011;50.772;7.730;2023-08-12T14:53:33;3.10;;;1.15;;
67092;SDS011;54011;50.772;7.730;2023-08-12T14:55:59;11.38;;;1.75;;
67092;SDS011;54011;50.772;7.730;2023-08-12T14:58:25;4.20;;;1.33;;